sensor_id;sensor_type;location;lat;lon;timestamp;P1;durP1;ratioP1;P2;durP2;ratioP2
7703;SDS011;3894;49.700;10.770;2023-05-14T00:00:32;7.30;;;2.83;;
7703;SDS011;3894;49.700;10.770;2023-05-14T00:02:57;8.93;;;3.00;;
7703;SDS011;3894;49.700;10.770;2023-05-14T00:05:23;6.45;;;2.55;;
7703;SDS011;3894;49.700;10.770;2023-05-14T00:07:48;7.10;;;3.72;;
7703;SDS011;3894;49.700;10.770;2023-05-14T00:10:14;6.38;;;3.08;;
7703;SDS011;3894;49.700;10.770;2023-05-14T00:12:41;7.32;;;3.10;;
7703;SDS011;3894;49.700;10.770;2023-05-14T00:15:07;7.45;;;3.25;;
7703;SDS011;3894;49.700;10.770;2023-05-14T00:17:33;7.55;;;2.90;;
7703;SDS011;3894;49.700;10.770;2023-05-14T00:19:58;8.13;;;3.35;;
7703;SDS011;3894;49.700;10.770;2023-05-14T00:22:24;5.97;;;2.80;;
7703;SDS011;3894;49.700;10.770;2023-05-14T00:24:50;9.98;;;3.40;;
7703;SDS011;3894;49.700;10.770;2023-05-14T00:27:15;7.47;;;3.03;;
7703;SDS011;3894;49.700;10.770;2023-05-14T00:29:41;7.00;;;3.15;;
7703;SDS011;3894;49.700;10.770;2023-05-14T00:32:06;7.65;;;3.47;;
7703;SDS011;3894;49.700;10.770;2023-05-14T00:34:33;7.75;;;3.17;;
7703;SDS011;3894;49.700;10.770;2023-05-14T00:36:59;6.88;;;3.00;;
7703;SDS011;3894;49.700;10.770;2023-05-14T00:39:25;6.40;;;3.03;;
7703;SDS011;3894;49.700;10.770;2023-05-14T00:41:50;7.05;;;3.47;;
7703;SDS011;3894;49.700;10.770;2023-05-14T00:44:16;6.90;;;3.03;;
7703;SDS011;3894;49.700;10.770;2023-05-14T00:46:41;8.10;;;3.30;;
7703;SDS011;3894;49.700;10.770;2023-05-14T00:49:07;6.30;;;3.03;;
7703;SDS011;3894;49.700;10.770;2023-05-14T00:51:33;7.93;;;3.47;;
7703;SDS011;3894;49.700;10.770;2023-05-14T00:53:58;7.18;;;3.42;;
7703;SDS011;3894;49.700;10.770;2023-05-14T00:56:24;6.60;;;2.92;;
7703;SDS011;3894;49.700;10.770;2023-05-14T00:58:51;8.07;;;3.50;;
7703;SDS011;3894;49.700;10.770;2023-05-14T01:01:17;7.18;;;2.90;;
7703;SDS011;3894;49.700;10.770;2023-05-14T01:03:42;7.32;;;3.40;;
7703;SDS011;3894;49.700;10.770;2023-05-14T01:06:14;7.72;;;3.30;;
7703;SDS011;3894;49.700;10.770;2023-05-14T01:09:02;7.22;;;3.03;;
7703;SDS011;3894;49.700;10.770;2023-05-14T01:16:47;7.40;;;3.13;;
7703;SDS011;3894;49.700;10.770;2023-05-14T01:19:36;7.05;;;3.03;;
7703;SDS011;3894;49.700;10.770;2023-05-14T01:22:04;8.85;;;4.07;;
7703;SDS011;3894;49.700;10.770;2023-05-14T01:24:30;8.38;;;3.25;;
7703;SDS011;3894;49.700;10.770;2023-05-14T01:26:57;7.25;;;3.25;;
7703;SDS011;3894;49.700;10.770;2023-05-14T01:33:02;8.45;;;3.55;;
7703;SDS011;3894;49.700;10.770;2023-05-14T01:35:31;9.23;;;3.55;;
7703;SDS011;3894;49.700;10.770;2023-05-14T01:37:58;8.88;;;3.65;;
7703;SDS011;3894;49.700;10.770;2023-05-14T01:40:25;7.78;;;3.03;;
7703;SDS011;3894;49.700;10.770;2023-05-14T01:42:51;6.43;;;3.20;;
7703;SDS011;3894;49.700;10.770;2023-05-14T01:45:21;8.02;;;3.22;;
7703;SDS011;3894;49.700;10.770;2023-05-14T01:47:47;9.77;;;3.67;;
7703;SDS011;3894;49.700;10.770;2023-05-14T01:50:13;9.07;;;3.35;;
7703;SDS011;3894;49.700;10.770;2023-05-14T01:52:39;7.97;;;3.45;;
7703;SDS011;3894;49.700;10.770;2023-05-14T01:55:04;8.35;;;3.55;;
7703;SDS011;3894;49.700;10.770;2023-05-14T01:57:30;7.82;;;3.60;;
7703;SDS011;3894;49.700;10.770;2023-05-14T01:59:56;7.00;;;3.38;;
7703;SDS011;3894;49.700;10.770;2023-05-14T02:02:21;8.65;;;4.15;;
7703;SDS011;3894;49.700;10.770;2023-05-14T02:04:47;8.27;;;3.60;;
7703;SDS011;3894;49.700;10.770;2023-05-14T02:07:13;11.07;;;3.72;;
7703;SDS011;3894;49.700;10.770;2023-05-14T02:09:38;9.13;;;3.85;;
7703;SDS011;3894;49.700;10.770;2023-05-14T02:12:05;8.18;;;4.07;;
7703;SDS011;3894;49.700;10.770;2023-05-14T02:14:31;9.18;;;3.88;;
7703;SDS011;3894;49.700;10.770;2023-05-14T02:16:57;7.38;;;3.30;;
7703;SDS011;3894;49.700;10.770;2023-05-14T02:19:22;7.28;;;3.30;;
7703;SDS011;3894;49.700;10.770;2023-05-14T02:21:48;7.50;;;3.63;;
7703;SDS011;3894;49.700;10.770;2023-05-14T02:24:14;10.32;;;3.17;;
7703;SDS011;3894;49.700;10.770;2023-05-14T02:26:40;7.38;;;3.15;;
7703;SDS011;3894;49.700;10.770;2023-05-14T02:29:06;7.05;;;3.13;;
7703;SDS011;3894;49.700;10.770;2023-05-14T02:31:32;7.05;;;3.17;;
7703;SDS011;3894;49.700;10.770;2023-05-14T02:33:59;8.25;;;3.78;;
7703;SDS011;3894;49.700;10.770;2023-05-14T02:36:25;9.05;;;3.65;;
7703;SDS011;3894;49.700;10.770;2023-05-14T02:38:51;7.93;;;3.95;;
7703;SDS011;3894;49.700;10.770;2023-05-14T02:41:16;7.53;;;3.97;;
7703;SDS011;3894;49.700;10.770;2023-05-14T02:43:42;7.25;;;3.38;;
7703;SDS011;3894;49.700;10.770;2023-05-14T02:46:07;8.68;;;3.53;;
7703;SDS011;3894;49.700;10.770;2023-05-14T02:48:33;7.88;;;3.38;;
7703;SDS011;3894;49.700;10.770;2023-05-14T02:50:58;8.05;;;3.33;;
7703;SDS011;3894;49.700;10.770;2023-05-14T02:53:24;7.00;;;3.35;;
7703;SDS011;3894;49.700;10.770;2023-05-14T02:55:50;8.50;;;3.75;;
7703;SDS011;3894;49.700;10.770;2023-05-14T02:58:15;7.40;;;3.33;;
7703;SDS011;3894;49.700;10.770;2023-05-14T03:00:41;7.78;;;3.13;;
7703;SDS011;3894;49.700;10.770;2023-05-14T03:03:07;7.18;;;3.28;;
7703;SDS011;3894;49.700;10.770;2023-05-14T03:05:32;8.25;;;3.58;;
7703;SDS011;3894;49.700;10.770;2023-05-14T03:07:58;12.23;;;3.92;;
7703;SDS011;3894;49.700;10.770;2023-05-14T03:10:24;8.48;;;3.65;;
7703;SDS011;3894;49.700;10.770;2023-05-14T03:12:49;8.85;;;3.83;;
7703;SDS011;3894;49.700;10.770;2023-05-14T03:15:15;8.93;;;3.83;;
7703;SDS011;3894;49.700;10.770;2023-05-14T03:17:41;7.30;;;3.22;;
7703;SDS011;3894;49.700;10.770;2023-05-14T03:20:06;7.85;;;3.92;;
7703;SDS011;3894;49.700;10.770;2023-05-14T03:22:32;8.82;;;3.70;;
7703;SDS011;3894;49.700;10.770;2023-05-14T03:24:58;8.90;;;3.50;;
7703;SDS011;3894;49.700;10.770;2023-05-14T03:27:23;8.80;;;2.95;;
7703;SDS011;3894;49.700;10.770;2023-05-14T03:29:49;7.70;;;3.60;;
7703;SDS011;3894;49.700;10.770;2023-05-14T03:32:14;7.88;;;3.60;;
7703;SDS011;3894;49.700;10.770;2023-05-14T03:34:41;7.22;;;3.33;;
7703;SDS011;3894;49.700;10.770;2023-05-14T03:37:06;8.80;;;3.78;;
7703;SDS011;3894;49.700;10.770;2023-05-14T03:39:32;8.43;;;3.45;;
7703;SDS011;3894;49.700;10.770;2023-05-14T03:41:57;10.05;;;3.90;;
7703;SDS011;3894;49.700;10.770;2023-05-14T03:44:23;8.57;;;3.83;;
7703;SDS011;3894;49.700;10.770;2023-05-14T03:46:49;6.90;;;3.15;;
7703;SDS011;3894;49.700;10.770;2023-05-14T03:49:15;7.57;;;3.78;;
7703;SDS011;3894;49.700;10.770;2023-05-14T03:51:40;7.90;;;3.53;;
7703;SDS011;3894;49.700;10.770;2023-05-14T03:54:06;9.20;;;3.60;;
7703;SDS011;3894;49.700;10.770;2023-05-14T03:56:31;6.63;;;3.45;;
7703;SDS011;3894;49.700;10.770;2023-05-14T03:58:57;7.65;;;3.25;;
7703;SDS011;3894;49.700;10.770;2023-05-14T04:01:22;8.00;;;3.17;;
7703;SDS011;3894;49.700;10.770;2023-05-14T04:03:48;8.40;;;3.63;;
7703;SDS011;3894;49.700;10.770;2023-05-14T04:06:13;10.95;;;3.95;;
7703;SDS011;3894;49.700;10.770;2023-05-14T04:08:40;8.73;;;3.65;;
7703;SDS011;3894;49.700;10.770;2023-05-14T04:11:05;8.40;;;3.40;;
7703;SDS011;3894;49.700;10.770;2023-05-14T04:13:31;7.20;;;2.85;;
7703;SDS011;3894;49.700;10.770;2023-05-14T04:15:56;7.53;;;3.55;;
7703;SDS011;3894;49.700;10.770;2023-05-14T04:18:22;7.65;;;3.60;;
7703;SDS011;3894;49.700;10.770;2023-05-14T04:20:47;8.70;;;3.38;;
7703;SDS011;3894;49.700;10.770;2023-05-14T04:23:13;7.63;;;3.67;;
7703;SDS011;3894;49.700;10.770;2023-05-14T04:25:38;8.82;;;3.70;;
7703;SDS011;3894;49.700;10.770;2023-05-14T04:28:04;8.05;;;3.72;;
7703;SDS011;3894;49.700;10.770;2023-05-14T04:30:30;7.93;;;3.50;;
7703;SDS011;3894;49.700;10.770;2023-05-14T04:32:55;7.32;;;3.30;;
7703;SDS011;3894;49.700;10.770;2023-05-14T04:35:21;8.10;;;3.88;;
7703;SDS011;3894;49.700;10.770;2023-05-14T04:37:46;7.55;;;3.10;;
7703;SDS011;3894;49.700;10.770;2023-05-14T04:40:13;10.52;;;3.78;;
7703;SDS011;3894;49.700;10.770;2023-05-14T04:42:40;8.57;;;3.88;;
7703;SDS011;3894;49.700;10.770;2023-05-14T04:45:06;8.75;;;3.72;;
7703;SDS011;3894;49.700;10.770;2023-05-14T04:47:33;9.27;;;3.97;;
7703;SDS011;3894;49.700;10.770;2023-05-14T04:49:58;8.02;;;3.63;;
7703;SDS011;3894;49.700;10.770;2023-05-14T04:52:24;8.50;;;3.70;;
7703;SDS011;3894;49.700;10.770;2023-05-14T04:54:50;8.90;;;3.83;;
7703;SDS011;3894;49.700;10.770;2023-05-14T04:57:15;8.45;;;4.10;;
7703;SDS011;3894;49.700;10.770;2023-05-14T04:59:41;8.48;;;3.45;;
7703;SDS011;3894;49.700;10.770;2023-05-14T05:02:07;8.52;;;3.97;;
7703;SDS011;3894;49.700;10.770;2023-05-14T05:04:32;9.75;;;3.65;;
7703;SDS011;3894;49.700;10.770;2023-05-14T05:06:58;7.80;;;3.70;;
7703;SDS011;3894;49.700;10.770;2023-05-14T05:09:24;8.60;;;3.63;;
7703;SDS011;3894;49.700;10.770;2023-05-14T05:11:49;8.13;;;3.75;;
7703;SDS011;3894;49.700;10.770;2023-05-14T05:14:15;9.13;;;3.58;;
7703;SDS011;3894;49.700;10.770;2023-05-14T05:16:41;8.27;;;3.00;;
7703;SDS011;3894;49.700;10.770;2023-05-14T05:19:06;7.97;;;3.42;;
7703;SDS011;3894;49.700;10.770;2023-05-14T05:21:32;8.93;;;3.67;;
7703;SDS011;3894;49.700;10.770;2023-05-14T05:23:58;9.40;;;3.90;;
7703;SDS011;3894;49.700;10.770;2023-05-14T05:26:24;7.60;;;3.60;;
7703;SDS011;3894;49.700;10.770;2023-05-14T05:28:50;8.32;;;3.40;;
7703;SDS011;3894;49.700;10.770;2023-05-14T05:31:16;9.18;;;3.95;;
7703;SDS011;3894;49.700;10.770;2023-05-14T05:33:42;7.25;;;2.97;;
7703;SDS011;3894;49.700;10.770;2023-05-14T05:36:07;7.43;;;3.38;;
7703;SDS011;3894;49.700;10.770;2023-05-14T05:38:33;7.25;;;3.03;;
7703;SDS011;3894;49.700;10.770;2023-05-14T05:40:59;8.02;;;3.25;;
7703;SDS011;3894;49.700;10.770;2023-05-14T05:43:24;7.50;;;3.10;;
7703;SDS011;3894;49.700;10.770;2023-05-14T05:45:50;7.30;;;3.10;;
7703;SDS011;3894;49.700;10.770;2023-05-14T05:48:15;7.18;;;3.25;;
7703;SDS011;3894;49.700;10.770;2023-05-14T05:50:41;8.93;;;3.53;;
7703;SDS011;3894;49.700;10.770;2023-05-14T05:53:08;9.25;;;3.30;;
7703;SDS011;3894;49.700;10.770;2023-05-14T05:55:34;7.18;;;3.22;;
7703;SDS011;3894;49.700;10.770;2023-05-14T05:57:59;8.40;;;3.63;;
7703;SDS011;3894;49.700;10.770;2023-05-14T06:00:25;8.02;;;4.05;;
7703;SDS011;3894;49.700;10.770;2023-05-14T06:02:51;8.13;;;3.05;;
7703;SDS011;3894;49.700;10.770;2023-05-14T06:05:17;8.07;;;3.50;;
7703;SDS011;3894;49.700;10.770;2023-05-14T06:07:43;7.60;;;3.30;;
7703;SDS011;3894;49.700;10.770;2023-05-14T06:10:09;7.03;;;3.03;;
7703;SDS011;3894;49.700;10.770;2023-05-14T06:12:34;6.38;;;2.85;;
7703;SDS011;3894;49.700;10.770;2023-05-14T06:15:00;7.72;;;3.55;;
7703;SDS011;3894;49.700;10.770;2023-05-14T06:17:26;8.57;;;3.50;;
7703;SDS011;3894;49.700;10.770;2023-05-14T06:19:51;7.28;;;3.00;;
7703;SDS011;3894;49.700;10.770;2023-05-14T06:22:17;7.75;;;3.15;;
7703;SDS011;3894;49.700;10.770;2023-05-14T06:24:43;7.40;;;3.20;;
7703;SDS011;3894;49.700;10.770;2023-05-14T06:27:09;7.20;;;2.92;;
7703;SDS011;3894;49.700;10.770;2023-05-14T06:29:35;6.82;;;3.10;;
7703;SDS011;3894;49.700;10.770;2023-05-14T06:32:01;6.65;;;3.45;;
7703;SDS011;3894;49.700;10.770;2023-05-14T06:34:28;6.82;;;2.75;;
7703;SDS011;3894;49.700;10.770;2023-05-14T06:36:54;9.23;;;3.45;;
7703;SDS011;3894;49.700;10.770;2023-05-14T06:39:21;7.43;;;3.30;;
7703;SDS011;3894;49.700;10.770;2023-05-14T06:41:46;6.68;;;2.63;;
7703;SDS011;3894;49.700;10.770;2023-05-14T06:44:12;7.20;;;3.17;;
7703;SDS011;3894;49.700;10.770;2023-05-14T06:46:37;7.60;;;3.25;;
7703;SDS011;3894;49.700;10.770;2023-05-14T06:49:03;8.63;;;3.05;;
7703;SDS011;3894;49.700;10.770;2023-05-14T06:51:29;6.43;;;2.70;;
7703;SDS011;3894;49.700;10.770;2023-05-14T06:53:55;7.13;;;3.72;;
7703;SDS011;3894;49.700;10.770;2023-05-14T06:56:20;6.95;;;3.00;;
7703;SDS011;3894;49.700;10.770;2023-05-14T06:58:46;7.03;;;3.35;;
7703;SDS011;3894;49.700;10.770;2023-05-14T07:01:12;8.05;;;3.22;;
7703;SDS011;3894;49.700;10.770;2023-05-14T07:03:37;7.15;;;3.28;;
7703;SDS011;3894;49.700;10.770;2023-05-14T07:06:03;6.22;;;2.90;;
7703;SDS011;3894;49.700;10.770;2023-05-14T07:08:30;6.57;;;2.50;;
7703;SDS011;3894;49.700;10.770;2023-05-14T07:10:56;6.70;;;3.03;;
7703;SDS011;3894;49.700;10.770;2023-05-14T07:13:21;7.65;;;3.03;;
7703;SDS011;3894;49.700;10.770;2023-05-14T07:15:48;6.70;;;3.17;;
7703;SDS011;3894;49.700;10.770;2023-05-14T07:18:13;7.53;;;3.35;;
7703;SDS011;3894;49.700;10.770;2023-05-14T07:20:39;6.82;;;3.08;;
7703;SDS011;3894;49.700;10.770;2023-05-14T07:23:04;6.93;;;2.58;;
7703;SDS011;3894;49.700;10.770;2023-05-14T07:25:30;8.43;;;3.20;;
7703;SDS011;3894;49.700;10.770;2023-05-14T07:27:56;7.32;;;2.78;;
7703;SDS011;3894;49.700;10.770;2023-05-14T07:30:22;6.40;;;2.55;;
7703;SDS011;3894;49.700;10.770;2023-05-14T07:32:47;7.00;;;2.50;;
7703;SDS011;3894;49.700;10.770;2023-05-14T07:35:13;7.85;;;2.85;;
7703;SDS011;3894;49.700;10.770;2023-05-14T07:37:39;6.32;;;2.60;;
7703;SDS011;3894;49.700;10.770;2023-05-14T07:40:04;8.07;;;3.03;;
7703;SDS011;3894;49.700;10.770;2023-05-14T07:42:31;8.07;;;2.72;;
7703;SDS011;3894;49.700;10.770;2023-05-14T07:44:56;6.43;;;2.70;;
7703;SDS011;3894;49.700;10.770;2023-05-14T07:47:22;5.88;;;2.50;;
7703;SDS011;3894;49.700;10.770;2023-05-14T07:49:47;7.03;;;2.80;;
7703;SDS011;3894;49.700;10.770;2023-05-14T07:52:13;6.63;;;2.50;;
7703;SDS011;3894;49.700;10.770;2023-05-14T07:54:38;6.60;;;2.45;;
7703;SDS011;3894;49.700;10.770;2023-05-14T07:57:04;7.60;;;2.97;;
7703;SDS011;3894;49.700;10.770;2023-05-14T07:59:30;5.65;;;2.42;;
7703;SDS011;3894;49.700;10.770;2023-05-14T08:01:56;6.30;;;2.38;;
7703;SDS011;3894;49.700;10.770;2023-05-14T08:04:21;6.97;;;3.00;;
7703;SDS011;3894;49.700;10.770;2023-05-14T08:06:47;6.72;;;2.55;;
7703;SDS011;3894;49.700;10.770;2023-05-14T08:09:13;5.95;;;2.60;;
7703;SDS011;3894;49.700;10.770;2023-05-14T08:11:39;7.28;;;2.83;;
7703;SDS011;3894;49.700;10.770;2023-05-14T08:14:04;6.25;;;2.70;;
7703;SDS011;3894;49.700;10.770;2023-05-14T08:16:30;5.35;;;2.25;;
7703;SDS011;3894;49.700;10.770;2023-05-14T08:18:56;5.90;;;2.10;;
7703;SDS011;3894;49.700;10.770;2023-05-14T08:21:21;6.70;;;2.70;;
7703;SDS011;3894;49.700;10.770;2023-05-14T08:23:47;5.78;;;2.22;;
7703;SDS011;3894;49.700;10.770;2023-05-14T08:26:12;6.82;;;2.90;;
7703;SDS011;3894;49.700;10.770;2023-05-14T08:28:38;6.90;;;2.47;;
7703;SDS011;3894;49.700;10.770;2023-05-14T08:31:03;6.55;;;2.58;;
7703;SDS011;3894;49.700;10.770;2023-05-14T08:33:29;6.43;;;3.10;;
7703;SDS011;3894;49.700;10.770;2023-05-14T08:35:55;5.22;;;2.30;;
7703;SDS011;3894;49.700;10.770;2023-05-14T08:38:22;7.43;;;2.70;;
7703;SDS011;3894;49.700;10.770;2023-05-14T08:40:48;8.32;;;2.75;;
7703;SDS011;3894;49.700;10.770;2023-05-14T08:43:24;6.97;;;2.88;;
7703;SDS011;3894;49.700;10.770;2023-05-14T08:45:56;6.43;;;2.72;;
7703;SDS011;3894;49.700;10.770;2023-05-14T08:48:24;7.30;;;2.38;;
7703;SDS011;3894;49.700;10.770;2023-05-14T08:50:52;6.45;;;2.78;;
7703;SDS011;3894;49.700;10.770;2023-05-14T08:53:19;6.07;;;1.98;;
7703;SDS011;3894;49.700;10.770;2023-05-14T08:55:44;6.10;;;2.08;;
7703;SDS011;3894;49.700;10.770;2023-05-14T08:58:12;5.45;;;2.28;;
7703;SDS011;3894;49.700;10.770;2023-05-14T09:00:37;5.57;;;1.88;;
7703;SDS011;3894;49.700;10.770;2023-05-14T09:03:04;5.95;;;2.25;;
7703;SDS011;3894;49.700;10.770;2023-05-14T09:07:57;5.70;;;2.50;;
7703;SDS011;3894;49.700;10.770;2023-05-14T09:10:23;6.60;;;2.22;;
7703;SDS011;3894;49.700;10.770;2023-05-14T09:12:49;7.28;;;2.63;;
7703;SDS011;3894;49.700;10.770;2023-05-14T09:15:15;5.90;;;2.00;;
7703;SDS011;3894;49.700;10.770;2023-05-14T09:17:41;6.65;;;2.50;;
7703;SDS011;3894;49.700;10.770;2023-05-14T09:20:07;6.43;;;2.20;;
7703;SDS011;3894;49.700;10.770;2023-05-14T09:22:34;6.07;;;2.45;;
7703;SDS011;3894;49.700;10.770;2023-05-14T09:27:33;6.05;;;2.03;;
7703;SDS011;3894;49.700;10.770;2023-05-14T09:30:04;6.43;;;2.15;;
7703;SDS011;3894;49.700;10.770;2023-05-14T09:32:34;6.47;;;1.95;;
7703;SDS011;3894;49.700;10.770;2023-05-14T09:35:08;6.00;;;2.05;;
7703;SDS011;3894;49.700;10.770;2023-05-14T09:40:04;5.70;;;2.22;;
7703;SDS011;3894;49.700;10.770;2023-05-14T09:42:32;5.90;;;2.30;;
7703;SDS011;3894;49.700;10.770;2023-05-14T09:44:58;8.02;;;2.13;;
7703;SDS011;3894;49.700;10.770;2023-05-14T09:47:24;7.53;;;2.65;;
7703;SDS011;3894;49.700;10.770;2023-05-14T09:49:49;5.47;;;2.22;;
7703;SDS011;3894;49.700;10.770;2023-05-14T09:52:17;8.00;;;2.20;;
7703;SDS011;3894;49.700;10.770;2023-05-14T09:54:43;6.35;;;2.53;;
7703;SDS011;3894;49.700;10.770;2023-05-14T09:57:10;7.95;;;2.90;;
7703;SDS011;3894;49.700;10.770;2023-05-14T09:59:35;6.32;;;2.33;;
7703;SDS011;3894;49.700;10.770;2023-05-14T10:02:01;7.95;;;3.03;;
7703;SDS011;3894;49.700;10.770;2023-05-14T10:04:31;6.38;;;2.30;;
7703;SDS011;3894;49.700;10.770;2023-05-14T10:06:57;6.75;;;2.78;;
7703;SDS011;3894;49.700;10.770;2023-05-14T10:09:24;7.20;;;2.67;;
7703;SDS011;3894;49.700;10.770;2023-05-14T10:11:54;7.22;;;3.03;;
7703;SDS011;3894;49.700;10.770;2023-05-14T10:14:28;5.70;;;2.25;;
7703;SDS011;3894;49.700;10.770;2023-05-14T10:17:00;6.85;;;2.55;;
7703;SDS011;3894;49.700;10.770;2023-05-14T10:19:27;6.18;;;2.35;;
7703;SDS011;3894;49.700;10.770;2023-05-14T10:22:00;6.20;;;2.35;;
7703;SDS011;3894;49.700;10.770;2023-05-14T10:24:28;7.13;;;2.13;;
7703;SDS011;3894;49.700;10.770;2023-05-14T10:26:55;6.65;;;2.65;;
7703;SDS011;3894;49.700;10.770;2023-05-14T10:29:35;6.75;;;2.65;;
7703;SDS011;3894;49.700;10.770;2023-05-14T10:32:04;7.93;;;3.08;;
7703;SDS011;3894;49.700;10.770;2023-05-14T10:37:05;5.38;;;2.08;;
7703;SDS011;3894;49.700;10.770;2023-05-14T10:39:52;5.50;;;2.05;;
7703;SDS011;3894;49.700;10.770;2023-05-14T10:42:26;7.07;;;2.40;;
7703;SDS011;3894;49.700;10.770;2023-05-14T10:44:59;5.93;;;2.67;;
7703;SDS011;3894;49.700;10.770;2023-05-14T10:47:30;5.82;;;2.80;;
7703;SDS011;3894;49.700;10.770;2023-05-14T10:50:00;6.45;;;2.03;;
7703;SDS011;3894;49.700;10.770;2023-05-14T10:52:27;5.97;;;2.53;;
7703;SDS011;3894;49.700;10.770;2023-05-14T10:54:57;5.40;;;2.00;;
7703;SDS011;3894;49.700;10.770;2023-05-14T10:57:25;7.03;;;2.42;;
7703;SDS011;3894;49.700;10.770;2023-05-14T10:59:53;7.57;;;2.50;;
7703;SDS011;3894;49.700;10.770;2023-05-14T11:02:24;6.15;;;2.50;;
7703;SDS011;3894;49.700;10.770;2023-05-14T11:07:34;5.53;;;2.10;;
7703;SDS011;3894;49.700;10.770;2023-05-14T11:10:05;6.05;;;2.50;;
7703;SDS011;3894;49.700;10.770;2023-05-14T11:12:33;5.80;;;2.53;;
7703;SDS011;3894;49.700;10.770;2023-05-14T11:15:00;6.47;;;2.50;;
7703;SDS011;3894;49.700;10.770;2023-05-14T11:17:28;5.60;;;2.28;;
7703;SDS011;3894;49.700;10.770;2023-05-14T11:19:55;5.40;;;2.22;;
7703;SDS011;3894;49.700;10.770;2023-05-14T11:22:21;6.13;;;2.33;;
7703;SDS011;3894;49.700;10.770;2023-05-14T11:24:47;6.47;;;2.33;;
7703;SDS011;3894;49.700;10.770;2023-05-14T11:27:13;6.32;;;2.25;;
7703;SDS011;3894;49.700;10.770;2023-05-14T11:29:42;6.03;;;2.42;;
7703;SDS011;3894;49.700;10.770;2023-05-14T11:32:10;5.93;;;2.20;;
7703;SDS011;3894;49.700;10.770;2023-05-14T11:34:36;5.55;;;1.90;;
7703;SDS011;3894;49.700;10.770;2023-05-14T11:37:02;5.63;;;2.65;;
7703;SDS011;3894;49.700;10.770;2023-05-14T11:39:29;5.22;;;2.22;;
7703;SDS011;3894;49.700;10.770;2023-05-14T11:41:56;5.45;;;1.88;;
7703;SDS011;3894;49.700;10.770;2023-05-14T11:44:22;5.10;;;1.55;;
7703;SDS011;3894;49.700;10.770;2023-05-14T11:46:57;5.47;;;2.20;;
7703;SDS011;3894;49.700;10.770;2023-05-14T11:49:25;5.40;;;2.28;;
7703;SDS011;3894;49.700;10.770;2023-05-14T11:51:56;5.38;;;1.95;;
7703;SDS011;3894;49.700;10.770;2023-05-14T11:54:24;5.00;;;2.28;;
7703;SDS011;3894;49.700;10.770;2023-05-14T11:56:50;5.00;;;1.92;;
7703;SDS011;3894;49.700;10.770;2023-05-14T11:59:16;4.95;;;2.15;;
7703;SDS011;3894;49.700;10.770;2023-05-14T12:01:43;6.25;;;2.38;;
7703;SDS011;3894;49.700;10.770;2023-05-14T12:04:11;5.70;;;2.30;;
7703;SDS011;3894;49.700;10.770;2023-05-14T12:06:39;5.50;;;2.03;;
7703;SDS011;3894;49.700;10.770;2023-05-14T12:09:05;5.25;;;2.03;;
7703;SDS011;3894;49.700;10.770;2023-05-14T12:11:31;4.90;;;1.85;;
7703;SDS011;3894;49.700;10.770;2023-05-14T12:14:00;4.75;;;1.88;;
7703;SDS011;3894;49.700;10.770;2023-05-14T12:16:31;4.50;;;1.70;;
7703;SDS011;3894;49.700;10.770;2023-05-14T12:19:00;5.10;;;2.10;;
7703;SDS011;3894;49.700;10.770;2023-05-14T12:21:26;6.18;;;2.03;;
7703;SDS011;3894;49.700;10.770;2023-05-14T12:23:57;5.20;;;1.80;;
7703;SDS011;3894;49.700;10.770;2023-05-14T12:26:25;5.45;;;2.00;;
7703;SDS011;3894;49.700;10.770;2023-05-14T12:29:00;5.32;;;1.77;;
7703;SDS011;3894;49.700;10.770;2023-05-14T12:31:27;5.70;;;1.80;;
7703;SDS011;3894;49.700;10.770;2023-05-14T12:33:56;4.85;;;1.88;;
7703;SDS011;3894;49.700;10.770;2023-05-14T12:36:22;4.93;;;1.80;;
7703;SDS011;3894;49.700;10.770;2023-05-14T12:38:48;5.13;;;1.90;;
7703;SDS011;3894;49.700;10.770;2023-05-14T12:41:15;3.83;;;1.48;;
7703;SDS011;3894;49.700;10.770;2023-05-14T12:43:41;4.97;;;1.73;;
7703;SDS011;3894;49.700;10.770;2023-05-14T12:46:08;5.35;;;1.90;;
7703;SDS011;3894;49.700;10.770;2023-05-14T12:48:34;4.35;;;1.55;;
7703;SDS011;3894;49.700;10.770;2023-05-14T12:51:00;5.22;;;1.95;;
7703;SDS011;3894;49.700;10.770;2023-05-14T12:53:25;5.10;;;1.60;;
7703;SDS011;3894;49.700;10.770;2023-05-14T12:55:51;4.75;;;1.63;;
7703;SDS011;3894;49.700;10.770;2023-05-14T12:58:16;4.50;;;1.60;;
7703;SDS011;3894;49.700;10.770;2023-05-14T13:00:42;4.95;;;1.90;;
7703;SDS011;3894;49.700;10.770;2023-05-14T13:03:08;4.63;;;1.40;;
7703;SDS011;3894;49.700;10.770;2023-05-14T13:05:33;4.57;;;1.65;;
7703;SDS011;3894;49.700;10.770;2023-05-14T13:07:59;6.05;;;1.98;;
7703;SDS011;3894;49.700;10.770;2023-05-14T13:10:27;4.38;;;1.60;;
7703;SDS011;3894;49.700;10.770;2023-05-14T13:12:53;4.53;;;1.75;;
7703;SDS011;3894;49.700;10.770;2023-05-14T13:15:20;4.68;;;1.70;;
7703;SDS011;3894;49.700;10.770;2023-05-14T13:17:46;5.47;;;1.80;;
7703;SDS011;3894;49.700;10.770;2023-05-14T13:20:12;4.88;;;1.73;;
7703;SDS011;3894;49.700;10.770;2023-05-14T13:22:38;4.95;;;1.80;;
7703;SDS011;3894;49.700;10.770;2023-05-14T13:25:03;5.10;;;1.80;;
7703;SDS011;3894;49.700;10.770;2023-05-14T13:27:29;4.75;;;1.92;;
7703;SDS011;3894;49.700;10.770;2023-05-14T13:29:55;4.85;;;1.83;;
7703;SDS011;3894;49.700;10.770;2023-05-14T13:32:21;4.38;;;1.65;;
7703;SDS011;3894;49.700;10.770;2023-05-14T13:34:46;5.00;;;1.75;;
7703;SDS011;3894;49.700;10.770;2023-05-14T13:37:12;4.53;;;1.42;;
7703;SDS011;3894;49.700;10.770;2023-05-14T13:39:37;5.30;;;1.60;;
7703;SDS011;3894;49.700;10.770;2023-05-14T13:42:03;5.60;;;2.53;;
7703;SDS011;3894;49.700;10.770;2023-05-14T13:44:29;4.57;;;1.80;;
7703;SDS011;3894;49.700;10.770;2023-05-14T13:46:54;5.20;;;1.75;;
7703;SDS011;3894;49.700;10.770;2023-05-14T13:49:20;5.43;;;1.98;;
7703;SDS011;3894;49.700;10.770;2023-05-14T13:51:45;4.65;;;1.60;;
7703;SDS011;3894;49.700;10.770;2023-05-14T13:54:11;5.47;;;1.63;;
7703;SDS011;3894;49.700;10.770;2023-05-14T13:56:37;4.53;;;2.00;;
7703;SDS011;3894;49.700;10.770;2023-05-14T13:59:02;4.18;;;1.50;;
7703;SDS011;3894;49.700;10.770;2023-05-14T14:01:28;4.38;;;1.80;;
7703;SDS011;3894;49.700;10.770;2023-05-14T14:03:56;4.43;;;1.65;;
7703;SDS011;3894;49.700;10.770;2023-05-14T14:06:22;5.78;;;2.00;;
7703;SDS011;3894;49.700;10.770;2023-05-14T14:08:47;7.03;;;1.83;;
7703;SDS011;3894;49.700;10.770;2023-05-14T14:11:13;5.93;;;2.13;;
7703;SDS011;3894;49.700;10.770;2023-05-14T14:13:38;5.28;;;1.90;;
7703;SDS011;3894;49.700;10.770;2023-05-14T14:16:05;7.88;;;2.33;;
7703;SDS011;3894;49.700;10.770;2023-05-14T14:18:31;4.97;;;1.83;;
7703;SDS011;3894;49.700;10.770;2023-05-14T14:20:57;5.85;;;2.10;;
7703;SDS011;3894;49.700;10.770;2023-05-14T14:23:23;5.15;;;1.90;;
7703;SDS011;3894;49.700;10.770;2023-05-14T14:25:48;5.15;;;1.73;;
7703;SDS011;3894;49.700;10.770;2023-05-14T14:28:14;5.25;;;1.95;;
7703;SDS011;3894;49.700;10.770;2023-05-14T14:30:39;4.45;;;1.75;;
7703;SDS011;3894;49.700;10.770;2023-05-14T14:33:05;5.47;;;2.40;;
7703;SDS011;3894;49.700;10.770;2023-05-14T14:35:30;5.50;;;2.55;;
7703;SDS011;3894;49.700;10.770;2023-05-14T14:37:57;5.05;;;1.90;;
7703;SDS011;3894;49.700;10.770;2023-05-14T14:40:23;5.60;;;1.90;;
7703;SDS011;3894;49.700;10.770;2023-05-14T14:42:50;5.07;;;2.05;;
7703;SDS011;3894;49.700;10.770;2023-05-14T14:45:15;4.82;;;1.80;;
7703;SDS011;3894;49.700;10.770;2023-05-14T14:47:42;4.65;;;1.77;;
7703;SDS011;3894;49.700;10.770;2023-05-14T14:50:09;4.70;;;2.30;;
7703;SDS011;3894;49.700;10.770;2023-05-14T14:52:36;5.10;;;1.95;;
7703;SDS011;3894;49.700;10.770;2023-05-14T14:55:03;4.45;;;1.73;;
7703;SDS011;3894;49.700;10.770;2023-05-14T14:57:28;4.85;;;1.75;;
7703;SDS011;3894;49.700;10.770;2023-05-14T14:59:54;4.72;;;1.85;;
7703;SDS011;3894;49.700;10.770;2023-05-14T15:02:20;5.68;;;1.88;;
7703;SDS011;3894;49.700;10.770;2023-05-14T15:04:45;4.70;;;2.45;;
7703;SDS011;3894;49.700;10.770;2023-05-14T15:07:11;5.70;;;1.75;;
7703;SDS011;3894;49.700;10.770;2023-05-14T15:09:37;4.65;;;1.63;;
7703;SDS011;3894;49.700;10.770;2023-05-14T15:12:02;4.50;;;1.70;;
7703;SDS011;3894;49.700;10.770;2023-05-14T15:14:28;4.95;;;1.85;;
7703;SDS011;3894;49.700;10.770;2023-05-14T15:16:53;4.93;;;1.65;;